Time;durP1;ratioP1;P1;durP2;ratioP2;P2;SDS_P1;SDS_P2;PMS_P1;PMS_P2;Temp;Humidity;BMP_temperature;BMP_pressure;BME280_temperature;BME280_humidity;BME280_pressure;Samples;Min_cycle;Max_cycle;Signal;HPM_P1;HPM_P2
2021/01/10 00:00:31;;;;;;;;;;;;;;;;;;4998416;28;20445;-68
2021/01/10 00:02:58;;;;;;;;;;;;;;;;;;4996538;28;19945;-68
2021/01/10 00:05:24;;;;;;;;;;;;;;;;;;4996226;28;19926;-68
2021/01/10 00:07:51;;;;;;;;;;;;;;;;;;4995554;28;19933;-67
2021/01/10 00:10:17;;;;;;;;;;;;;;;;;;4996538;28;19936;-68
2021/01/10 00:12:44;;;;;;;;;;;;;;;;;;4996551;28;20319;-68
2021/01/10 00:15:10;;;;;;;;;;;;;;;;;;4996723;28;19973;-67
2021/01/10 00:17:37;;;;;;;;;;;;;;;;;;4995428;28;20359;-67
2021/01/10 00:20:03;;;;;;;;;;;;;;;;;;4996309;28;19934;-68
2021/01/10 00:22:30;;;;;;;;;;;;;;;;;;4995729;28;19937;-68
2021/01/10 00:24:56;;;;;;;;;;;;;;;;;;4995591;28;19933;-67
2021/01/10 00:27:23;;;;;;;;;;;;;;;;;;4993934;28;19936;-66
2021/01/10 00:29:50;;;;;;;;;;;;;;;;;;4995788;28;19965;-68
2021/01/10 00:32:17;;;;;;;;;;;;;;;;;;4994986;28;19929;-69
2021/01/10 00:34:43;;;;;;;;;;;;;;;;;;4995059;28;19932;-68
2021/01/10 00:37:10;;;;;;;;;;;;;;;;;;4995088;28;19925;-68
2021/01/10 00:39:36;;;;;;;;;;;;;;;;;;4995341;28;20355;-67
2021/01/10 00:42:03;;;;;;;;;;;;;;;;;;4996242;28;19925;-67
2021/01/10 00:44:29;;;;;;;;;;;;;;;;;;4995358;28;19930;-67
2021/01/10 00:46:56;;;;;;;;;;;;;;;;;;4994678;28;19926;-68
2021/01/10 00:49:22;;;;;;;;;;;;;;;;;;4994421;28;19926;-68
2021/01/10 00:51:48;;;;;;;;;;;;;;;;;;4995665;28;19933;-68
2021/01/10 00:54:15;;;;;;;;;;;;;;;;;;4995067;28;19932;-67
2021/01/10 00:56:41;;;;;;;;;;;;;;;;;;4996018;28;19925;-67
2021/01/10 00:59:08;;;;;;;;;;;;;;;;;;4995911;28;19926;-67
2021/01/10 01:01:34;;;;;;;;;;;;;;;;;;4995878;28;20304;-68
2021/01/10 01:04:01;;;;;;;;;;;;;;;;;;4995984;28;20018;-68
2021/01/10 01:06:27;;;;;;;;;;;;;;;;;;4995263;28;19982;-68
2021/01/10 01:08:54;;;;;;;;;;;;;;;;;;4994942;28;19926;-68
2021/01/10 01:11:20;;;;;;;;;;;;;;;;;;4995593;28;19925;-67
2021/01/10 01:13:47;;;;;;;;;;;;;;;;;;4995348;28;19926;-68
2021/01/10 01:16:13;;;;;;;;;;;;;;;;;;4994650;28;19940;-68
2021/01/10 01:18:39;;;;;;;;;;;;;;;;;;4995099;28;19945;-67
2021/01/10 01:21:06;;;;;;;;;;;;;;;;;;4995002;28;19971;-67
2021/01/10 01:23:32;;;;;;;;;;;;;;;;;;4995029;28;19926;-68
2021/01/10 01:25:59;;;;;;;;;;;;;;;;;;4994980;28;19930;-68
2021/01/10 01:28:25;;;;;;;;;;;;;;;;;;4994666;28;19932;-68
2021/01/10 01:30:52;;;;;;;;;;;;;;;;;;4995580;28;19926;-68
2021/01/10 01:33:18;;;;;;;;;;;;;;;;;;4994926;28;19925;-67
2021/01/10 01:35:44;;;;;;;;;;;;;;;;;;4994377;28;19926;-67
2021/01/10 01:38:11;;;;;;;;;;;;;;;;;;4994940;28;19925;-68
2021/01/10 01:40:37;;;;;;;;;;;;;;;;;;4994932;28;19926;-68
2021/01/10 01:43:04;;;;;;;;;;;;;;;;;;4994708;28;19930;-67
2021/01/10 01:45:30;;;;;;;;;;;;;;;;;;4994404;28;19926;-68
2021/01/10 01:47:57;;;;;;;;;;;;;;;;;;4994523;28;19926;-68
2021/01/10 01:50:23;;;;;;;;;;;;;;;;;;4993807;28;19933;-68
2021/01/10 01:52:49;;;;;;;;;;;;;;;;;;4990190;28;19926;-69
2021/01/10 01:55:16;;;;;;;;;;;;;;;;;;4994321;28;19936;-67
2021/01/10 01:57:42;;;;;;;;;;;;;;;;;;4993568;28;19975;-67
2021/01/10 02:00:09;;;;;;;;;;;;;;;;;;4993726;28;20012;-68
2021/01/10 02:02:35;;;;;;;;;;;;;;;;;;4994059;28;20065;-68
2021/01/10 02:05:02;;;;;;;;;;;;;;;;;;4994895;28;20298;-68
2021/01/10 02:07:28;;;;;;;;;;;;;;;;;;4993858;28;19963;-67
2021/01/10 02:09:55;;;;;;;;;;;;;;;;;;4995374;28;19956;-66
2021/01/10 02:12:21;;;;;;;;;;;;;;;;;;4995327;28;20412;-68
2021/01/10 02:14:48;;;;;;;;;;;;;;;;;;4994459;28;19926;-68
2021/01/10 02:17:14;;;;;;;;;;;;;;;;;;4993882;28;20396;-68
2021/01/10 02:19:41;;;;;;;;;;;;;;;;;;4994008;28;20287;-68
2021/01/10 02:22:07;;;;;;;;;;;;;;;;;;4994621;28;20044;-68
2021/01/10 02:24:33;;;;;;;;;;;;;;;;;;4994656;28;19926;-67
2021/01/10 02:27:00;;;;;;;;;;;;;;;;;;4993331;28;19936;-68
2021/01/10 02:29:26;;;;;;;;;;;;;;;;;;4992968;28;19932;-67
2021/01/10 02:31:53;;;;;;;;;;;;;;;;;;4993475;28;19925;-67
2021/01/10 02:34:19;;;;;;;;;;;;;;;;;;4992964;28;20013;-67
2021/01/10 02:36:46;;;;;;;;;;;;;;;;;;4993101;28;20311;-67
2021/01/10 02:39:12;;;;;;;;;;;;;;;;;;4992763;28;20299;-68
2021/01/10 02:41:39;;;;;;;;;;;;;;;;;;4992792;28;19929;-68
2021/01/10 02:44:05;;;;;;;;;;;;;;;;;;4992925;28;19926;-68
2021/01/10 02:46:31;;;;;;;;;;;;;;;;;;4995667;28;19926;-68
2021/01/10 02:48:58;;;;;;;;;;;;;;;;;;4996616;28;19934;-67
2021/01/10 02:51:24;;;;;;;;;;;;;;;;;;4996900;28;19934;-68
2021/01/10 02:53:51;;;;;;;;;;;;;;;;;;4997145;28;19933;-68
2021/01/10 02:56:17;;;;;;;;;;;;;;;;;;4996964;28;19932;-67
2021/01/10 02:58:44;;;;;;;;;;;;;;;;;;4996696;28;19925;-68
2021/01/10 03:01:10;;;;;;;;;;;;;;;;;;4996973;28;19925;-68
2021/01/10 03:03:36;;;;;;;;;;;;;;;;;;4997024;28;19937;-67
2021/01/10 03:06:03;;;;;;;;;;;;;;;;;;4996468;28;19926;-67
2021/01/10 03:08:29;;;;;;;;;;;;;;;;;;4996061;28;19930;-68
2021/01/10 03:10:56;;;;;;;;;;;;;;;;;;4996295;28;19972;-68
2021/01/10 03:13:22;;;;;;;;;;;;;;;;;;4995226;28;19932;-67
2021/01/10 03:15:49;;;;;;;;;;;;;;;;;;4995546;28;20285;-67
2021/01/10 03:18:15;;;;;;;;;;;;;;;;;;4996126;28;20159;-68
2021/01/10 03:20:42;;;;;;;;;;;;;;;;;;4996886;28;20388;-68
2021/01/10 03:23:08;;;;;;;;;;;;;;;;;;4996488;28;19980;-68
2021/01/10 03:25:35;;;;;;;;;;;;;;;;;;4991835;28;19933;-68
2021/01/10 03:28:01;;;;;;;;;;;;;;;;;;4997387;28;19930;-66
2021/01/10 03:30:28;;;;;;;;;;;;;;;;;;4997224;28;19933;-67
2021/01/10 03:32:54;;;;;;;;;;;;;;;;;;4995535;28;20359;-67
2021/01/10 03:35:21;;;;;;;;;;;;;;;;;;4996177;28;19926;-68
2021/01/10 03:37:47;;;;;;;;;;;;;;;;;;4995452;28;20184;-68
2021/01/10 03:40:14;;;;;;;;;;;;;;;;;;4995820;28;20029;-67
2021/01/10 03:42:40;;;;;;;;;;;;;;;;;;4995483;28;19973;-68
2021/01/10 03:45:07;;;;;;;;;;;;;;;;;;4996357;28;19926;-67
2021/01/10 03:47:33;;;;;;;;;;;;;;;;;;4991088;28;19926;-66
2021/01/10 03:50:00;;;;;;;;;;;;;;;;;;4997873;28;19925;-66
2021/01/10 03:52:26;;;;;;;;;;;;;;;;;;4996320;28;19930;-67
2021/01/10 03:54:53;;;;;;;;;;;;;;;;;;4996425;28;20320;-67
2021/01/10 03:57:19;;;;;;;;;;;;;;;;;;4995195;28;20439;-67
2021/01/10 03:59:45;;;;;;;;;;;;;;;;;;4994636;28;19925;-67
2021/01/10 04:02:12;;;;;;;;;;;;;;;;;;4994531;28;19932;-67
2021/01/10 04:04:38;;;;;;;;;;;;;;;;;;4994873;28;19944;-67
2021/01/10 04:07:07;;;;;;;;;;;;;;;;;;4993772;28;20392;-68
2021/01/10 04:09:33;;;;;;;;;;;;;;;;;;4992968;28;19980;-69
2021/01/10 04:12:00;;;;;;;;;;;;;;;;;;4994403;28;19926;-67
2021/01/10 04:14:26;;;;;;;;;;;;;;;;;;4995158;28;19964;-66
2021/01/10 04:16:53;;;;;;;;;;;;;;;;;;4993511;28;19980;-66
2021/01/10 04:19:19;;;;;;;;;;;;;;;;;;4993350;28;19936;-67
2021/01/10 04:21:46;;;;;;;;;;;;;;;;;;4993327;28;20025;-68
2021/01/10 04:24:12;;;;;;;;;;;;;;;;;;4993932;28;19932;-65
2021/01/10 04:26:38;;;;;;;;;;;;;;;;;;4993475;28;19940;-66
2021/01/10 04:29:05;;;;;;;;;;;;;;;;;;4993770;28;19926;-66
2021/01/10 04:31:31;;;;;;;;;;;;;;;;;;4993812;28;19926;-67
2021/01/10 04:33:58;;;;;;;;;;;;;;;;;;4993173;28;19949;-69
2021/01/10 04:36:24;;;;;;;;;;;;;;;;;;4987277;28;20304;-67
2021/01/10 04:38:51;;;;;;;;;;;;;;;;;;4993564;28;20458;-67
2021/01/10 04:41:17;;;;;;;;;;;;;;;;;;4989337;28;19925;-65
2021/01/10 04:43:43;;;;;;;;;;;;;;;;;;4994256;28;19932;-67
2021/01/10 04:46:10;;;;;;;;;;;;;;;;;;4993407;28;20392;-67
2021/01/10 04:48:36;;;;;;;;;;;;;;;;;;4993520;28;19926;-67
2021/01/10 04:51:03;;;;;;;;;;;;;;;;;;4993383;28;19925;-68
2021/01/10 04:53:29;;;;;;;;;;;;;;;;;;4993041;28;20396;-66
2021/01/10 04:55:56;;;;;;;;;;;;;;;;;;4992911;28;19980;-67
2021/01/10 04:58:22;;;;;;;;;;;;;;;;;;4993503;28;19926;-67
2021/01/10 05:00:49;;;;;;;;;;;;;;;;;;4993148;28;20053;-67
2021/01/10 05:03:16;;;;;;;;;;;;;;;;;;4992866;28;19934;-67
2021/01/10 05:05:43;;;;;;;;;;;;;;;;;;4992648;28;20004;-67
2021/01/10 05:08:09;;;;;;;;;;;;;;;;;;4991327;28;19937;-67
2021/01/10 05:10:35;;;;;;;;;;;;;;;;;;4992801;28;19936;-67
2021/01/10 05:13:02;;;;;;;;;;;;;;;;;;4992370;28;19926;-67
2021/01/10 05:15:28;;;;;;;;;;;;;;;;;;4992959;28;19930;-67
2021/01/10 05:17:55;;;;;;;;;;;;;;;;;;4993036;28;19980;-67
2021/01/10 05:20:21;;;;;;;;;;;;;;;;;;4994055;28;19932;-67
2021/01/10 05:22:48;;;;;;;;;;;;;;;;;;4993468;28;19926;-67
2021/01/10 05:25:14;;;;;;;;;;;;;;;;;;4993049;28;19996;-67
2021/01/10 05:27:40;;;;;;;;;;;;;;;;;;4993292;28;19925;-67
2021/01/10 05:30:07;;;;;;;;;;;;;;;;;;4993518;28;19929;-67
2021/01/10 05:32:33;;;;;;;;;;;;;;;;;;4992770;28;20300;-67
2021/01/10 05:35:00;;;;;;;;;;;;;;;;;;4992659;28;19926;-67
2021/01/10 05:37:26;;;;;;;;;;;;;;;;;;4992905;28;19933;-67
2021/01/10 05:39:55;;;;;;;;;;;;;;;;;;4991507;28;19933;-68
2021/01/10 05:42:21;;;;;;;;;;;;;;;;;;4992663;28;19984;-67
2021/01/10 05:44:48;;;;;;;;;;;;;;;;;;4996459;28;19925;-67
2021/01/10 05:47:14;;;;;;;;;;;;;;;;;;4992258;28;20368;-67
2021/01/10 05:49:41;;;;;;;;;;;;;;;;;;4992300;28;19980;-67
2021/01/10 05:52:07;;;;;;;;;;;;;;;;;;4992148;28;19932;-68
2021/01/10 05:54:34;;;;;;;;;;;;;;;;;;4992601;28;20307;-67
2021/01/10 05:57:00;;;;;;;;;;;;;;;;;;4991710;28;20395;-67
2021/01/10 05:59:27;;;;;;;;;;;;;;;;;;4991583;28;20131;-68
2021/01/10 06:01:54;;;;;;;;;;;;;;;;;;4993960;28;19925;-67
2021/01/10 06:04:20;;;;;;;;;;;;;;;;;;4991577;28;19926;-67
2021/01/10 06:06:49;;;;;;;;;;;;;;;;;;4992457;28;19965;-67
2021/01/10 06:09:15;;;;;;;;;;;;;;;;;;4992821;28;20265;-67
2021/01/10 06:11:42;;;;;;;;;;;;;;;;;;4997437;28;19925;-67
2021/01/10 06:14:09;;;;;;;;;;;;;;;;;;4992735;28;19926;-67
2021/01/10 06:16:36;;;;;;;;;;;;;;;;;;5007112;23;20362;-68
2021/01/10 06:19:02;;;;;;;;;;;;;;;;;;4997602;28;19926;-71
2021/01/10 06:21:29;;;;;;;;;;;;;;;;;;4998337;28;20375;-68
2021/01/10 06:23:57;;;;;;;;;;;;;;;;;;4992249;28;19926;-68
2021/01/10 06:26:23;;;;;;;;;;;;;;;;;;4999504;28;19965;-69
2021/01/10 06:28:50;;;;;;;;;;;;;;;;;;4992832;28;20302;-68
2021/01/10 06:31:16;;;;;;;;;;;;;;;;;;4990752;28;19933;-69
2021/01/10 06:33:43;;;;;;;;;;;;;;;;;;4990341;28;19926;-67
2021/01/10 06:36:09;;;;;;;;;;;;;;;;;;4991606;28;19969;-69
2021/01/10 06:38:36;;;;;;;;;;;;;;;;;;4990327;28;19925;-68
2021/01/10 06:41:02;;;;;;;;;;;;;;;;;;4988798;28;20027;-68
2021/01/10 06:43:29;;;;;;;;;;;;;;;;;;4991353;28;19926;-68
2021/01/10 06:45:57;;;;;;;;;;;;;;;;;;4992099;28;19948;-68
2021/01/10 06:48:24;;;;;;;;;;;;;;;;;;4991162;28;20008;-68
2021/01/10 06:50:50;;;;;;;;;;;;;;;;;;4991297;28;19930;-68
2021/01/10 06:53:17;;;;;;;;;;;;;;;;;;4991915;28;19926;-70
2021/01/10 06:55:43;;;;;;;;;;;;;;;;;;4991359;28;19984;-68
2021/01/10 06:58:10;;;;;;;;;;;;;;;;;;4991342;28;19925;-68
2021/01/10 07:00:37;;;;;;;;;;;;;;;;;;4988981;28;19933;-67
2021/01/10 07:03:03;;;;;;;;;;;;;;;;;;4991055;28;19926;-68
2021/01/10 07:05:30;;;;;;;;;;;;;;;;;;4991505;28;19930;-68
2021/01/10 07:07:56;;;;;;;;;;;;;;;;;;4992280;28;19926;-68
2021/01/10 07:10:22;;;;;;;;;;;;;;;;;;4990829;28;20421;-68
2021/01/10 07:12:49;;;;;;;;;;;;;;;;;;4991731;28;20016;-68
2021/01/10 07:15:15;;;;;;;;;;;;;;;;;;4991302;28;20395;-67
2021/01/10 07:17:42;;;;;;;;;;;;;;;;;;4990626;28;19926;-68
2021/01/10 07:20:08;;;;;;;;;;;;;;;;;;4990667;28;19933;-68
2021/01/10 07:22:35;;;;;;;;;;;;;;;;;;4990838;28;20040;-68
2021/01/10 07:25:01;;;;;;;;;;;;;;;;;;4991870;28;19929;-68
2021/01/10 07:27:28;;;;;;;;;;;;;;;;;;4990170;28;19930;-68
2021/01/10 07:29:54;;;;;;;;;;;;;;;;;;4990580;28;19926;-68
2021/01/10 07:32:23;;;;;;;;;;;;;;;;;;4993168;28;20324;-68
2021/01/10 07:34:49;;;;;;;;;;;;;;;;;;4994694;28;19926;-67
2021/01/10 07:37:16;;;;;;;;;;;;;;;;;;4994316;28;19932;-68
2021/01/10 07:39:42;;;;;;;;;;;;;;;;;;4994566;28;19925;-68
2021/01/10 07:42:09;;;;;;;;;;;;;;;;;;4994706;28;20582;-68
2021/01/10 07:44:35;;;;;;;;;;;;;;;;;;4995026;28;19988;-68
2021/01/10 07:47:02;;;;;;;;;;;;;;;;;;4995189;28;19926;-68
2021/01/10 07:49:29;;;;;;;;;;;;;;;;;;4994241;28;20324;-68
2021/01/10 07:51:55;;;;;;;;;;;;;;;;;;4994734;28;19926;-69
2021/01/10 07:54:21;;;;;;;;;;;;;;;;;;4994869;28;19933;-68
2021/01/10 07:56:48;;;;;;;;;;;;;;;;;;4994591;28;19933;-68
2021/01/10 07:59:15;;;;;;;;;;;;;;;;;;4994257;28;19934;-68
2021/01/10 08:01:41;;;;;;;;;;;;;;;;;;4993924;28;19933;-69
2021/01/10 08:04:08;;;;;;;;;;;;;;;;;;4994658;28;20249;-68
2021/01/10 08:06:34;;;;;;;;;;;;;;;;;;4994500;28;19930;-68
2021/01/10 08:09:00;;;;;;;;;;;;;;;;;;4993850;28;19926;-68
2021/01/10 08:11:27;;;;;;;;;;;;;;;;;;4993572;28;19926;-69
2021/01/10 08:13:53;;;;;;;;;;;;;;;;;;4994011;28;19926;-69
2021/01/10 08:16:20;;;;;;;;;;;;;;;;;;4994113;28;19930;-69
2021/01/10 08:18:46;;;;;;;;;;;;;;;;;;4993655;28;20372;-69
2021/01/10 08:21:13;;;;;;;;;;;;;;;;;;4993672;28;19926;-69
2021/01/10 08:23:39;;;;;;;;;;;;;;;;;;4993718;28;19926;-69
2021/01/10 08:26:06;;;;;;;;;;;;;;;;;;4985778;28;19933;-68
2021/01/10 08:28:33;;;;;;;;;;;;;;;;;;4992850;28;20358;-69
2021/01/10 08:30:59;;;;;;;;;;;;;;;;;;4993583;28;19933;-69
2021/01/10 08:33:26;;;;;;;;;;;;;;;;;;4992630;28;19980;-70
2021/01/10 08:35:52;;;;;;;;;;;;;;;;;;4993187;28;19925;-69
2021/01/10 08:38:18;;;;;;;;;;;;;;;;;;4992686;28;19929;-68
2021/01/10 08:40:45;;;;;;;;;;;;;;;;;;4993118;28;19926;-69
2021/01/10 08:43:11;;;;;;;;;;;;;;;;;;4991565;28;19956;-69
2021/01/10 08:45:38;;;;;;;;;;;;;;;;;;4992183;28;19930;-69
2021/01/10 08:48:04;;;;;;;;;;;;;;;;;;4992706;28;19941;-69
2021/01/10 08:50:31;;;;;;;;;;;;;;;;;;4993188;28;19946;-69
2021/01/10 08:52:57;;;;;;;;;;;;;;;;;;4992531;28;19929;-68
2021/01/10 08:55:24;;;;;;;;;;;;;;;;;;4992648;28;19925;-68
2021/01/10 08:57:50;;;;;;;;;;;;;;;;;;4992518;28;19926;-69
2021/01/10 09:00:17;;;;;;;;;;;;;;;;;;4992357;28;20016;-69
2021/01/10 09:02:43;;;;;;;;;;;;;;;;;;4992054;28;19930;-69
2021/01/10 09:05:10;;;;;;;;;;;;;;;;;;4992511;28;20318;-68
2021/01/10 09:07:36;;;;;;;;;;;;;;;;;;4991342;28;19933;-69
2021/01/10 09:10:04;;;;;;;;;;;;;;;;;;4991904;28;19932;-68
2021/01/10 09:12:30;;;;;;;;;;;;;;;;;;4992192;28;19925;-67
2021/01/10 09:14:57;;;;;;;;;;;;;;;;;;4991670;28;19934;-69
2021/01/10 09:17:23;;;;;;;;;;;;;;;;;;4990883;28;19926;-69
2021/01/10 09:19:50;;;;;;;;;;;;;;;;;;4991175;28;19925;-69
2021/01/10 09:22:16;;;;;;;;;;;;;;;;;;4991538;28;19933;-69
2021/01/10 09:24:43;;;;;;;;;;;;;;;;;;4990814;28;20322;-69
2021/01/10 09:27:09;;;;;;;;;;;;;;;;;;4991909;28;19925;-68
2021/01/10 09:29:36;;;;;;;;;;;;;;;;;;4991963;28;19925;-68
2021/01/10 09:32:02;;;;;;;;;;;;;;;;;;4991809;28;20299;-68
2021/01/10 09:34:29;;;;;;;;;;;;;;;;;;4990859;28;19932;-68
2021/01/10 09:36:55;;;;;;;;;;;;;;;;;;4991836;28;20380;-68
2021/01/10 09:39:22;;;;;;;;;;;;;;;;;;4991984;28;19926;-69
2021/01/10 09:41:48;;;;;;;;;;;;;;;;;;4991524;28;20307;-69
2021/01/10 09:44:14;;;;;;;;;;;;;;;;;;4991389;28;19930;-69
2021/01/10 09:46:41;;;;;;;;;;;;;;;;;;4991012;28;19925;-72
2021/01/10 09:49:07;;;;;;;;;;;;;;;;;;4991237;28;19930;-69
2021/01/10 09:51:34;;;;;;;;;;;;;;;;;;4990887;28;19926;-69
2021/01/10 09:54:00;;;;;;;;;;;;;;;;;;4992110;28;19926;-68
2021/01/10 09:56:27;;;;;;;;;;;;;;;;;;4991876;28;19934;-68
2021/01/10 09:58:53;;;;;;;;;;;;;;;;;;4991363;28;19941;-67
2021/01/10 10:01:20;;;;;;;;;;;;;;;;;;4992362;28;19988;-67
2021/01/10 10:03:46;;;;;;;;;;;;;;;;;;4991803;28;19933;-67
2021/01/10 10:06:13;;;;;;;;;;;;;;;;;;4991778;28;19930;-68
2021/01/10 10:08:39;;;;;;;;;;;;;;;;;;4991388;28;19973;-67
2021/01/10 10:11:06;;;;;;;;;;;;;;;;;;4991645;28;20004;-67
2021/01/10 10:13:32;;;;;;;;;;;;;;;;;;4989200;28;19932;-67
2021/01/10 10:15:58;;;;;;;;;;;;;;;;;;4991380;28;19926;-67
2021/01/10 10:18:27;;;;;;;;;;;;;;;;;;4991424;28;20020;-67
2021/01/10 10:20:54;;;;;;;;;;;;;;;;;;4991301;28;19961;-68
2021/01/10 10:23:20;;;;;;;;;;;;;;;;;;4991099;28;19960;-67
2021/01/10 10:25:46;;;;;;;;;;;;;;;;;;4990597;28;19999;-68
2021/01/10 10:28:13;;;;;;;;;;;;;;;;;;4990975;28;19933;-67
2021/01/10 10:30:39;;;;;;;;;;;;;;;;;;4991032;28;19926;-67
2021/01/10 10:33:06;;;;;;;;;;;;;;;;;;4987086;28;19926;-67
2021/01/10 10:35:32;;;;;;;;;;;;;;;;;;4991168;28;19926;-67
2021/01/10 10:37:59;;;;;;;;;;;;;;;;;;4985684;28;19926;-67
2021/01/10 10:40:25;;;;;;;;;;;;;;;;;;4991005;28;20024;-67
2021/01/10 10:42:52;;;;;;;;;;;;;;;;;;4990606;28;20296;-67
2021/01/10 10:45:18;;;;;;;;;;;;;;;;;;4990765;28;19926;-68
2021/01/10 10:47:45;;;;;;;;;;;;;;;;;;4989024;28;20004;-68
2021/01/10 10:50:11;;;;;;;;;;;;;;;;;;4989938;28;19926;-68
2021/01/10 10:52:38;;;;;;;;;;;;;;;;;;4989814;28;20441;-67
2021/01/10 10:55:04;;;;;;;;;;;;;;;;;;4990524;28;19925;-68
2021/01/10 10:57:31;;;;;;;;;;;;;;;;;;4990136;28;20403;-68
2021/01/10 10:59:57;;;;;;;;;;;;;;;;;;4989644;28;19977;-67
2021/01/10 11:02:25;;;;;;;;;;;;;;;;;;4989620;28;20408;-67
2021/01/10 11:04:51;;;;;;;;;;;;;;;;;;4990426;28;19933;-68
2021/01/10 11:07:18;;;;;;;;;;;;;;;;;;4992804;28;20068;-67
2021/01/10 11:09:44;;;;;;;;;;;;;;;;;;4993022;28;20364;-68
2021/01/10 11:12:11;;;;;;;;;;;;;;;;;;4994648;28;19930;-67
2021/01/10 11:14:37;;;;;;;;;;;;;;;;;;4993242;28;19929;-68
2021/01/10 11:17:04;;;;;;;;;;;;;;;;;;4993683;28;20100;-67
2021/01/10 11:19:30;;;;;;;;;;;;;;;;;;4993852;28;19926;-68
2021/01/10 11:21:57;;;;;;;;;;;;;;;;;;4994310;28;20408;-68
2021/01/10 11:24:23;;;;;;;;;;;;;;;;;;4993319;28;19932;-67
2021/01/10 11:26:50;;;;;;;;;;;;;;;;;;4993961;28;19949;-68
2021/01/10 11:29:17;;;;;;;;;;;;;;;;;;4993044;28;20320;-66
2021/01/10 11:31:43;;;;;;;;;;;;;;;;;;4993571;28;19957;-67
2021/01/10 11:34:10;;;;;;;;;;;;;;;;;;4993762;28;20312;-68
2021/01/10 11:36:36;;;;;;;;;;;;;;;;;;4992845;28;19988;-68
2021/01/10 11:39:03;;;;;;;;;;;;;;;;;;4993823;28;19968;-67
2021/01/10 11:41:29;;;;;;;;;;;;;;;;;;4993662;28;19926;-68
2021/01/10 11:43:56;;;;;;;;;;;;;;;;;;4993908;28;20020;-67
2021/01/10 11:46:22;;;;;;;;;;;;;;;;;;4993171;28;20362;-68
2021/01/10 11:48:49;;;;;;;;;;;;;;;;;;4993440;28;21243;-67
2021/01/10 11:51:15;;;;;;;;;;;;;;;;;;4994232;28;20429;-68
2021/01/10 11:53:42;;;;;;;;;;;;;;;;;;4993150;28;19940;-67
2021/01/10 11:56:08;;;;;;;;;;;;;;;;;;4992254;28;19976;-68
2021/01/10 11:58:35;;;;;;;;;;;;;;;;;;4994057;28;19926;-68
2021/01/10 12:01:01;;;;;;;;;;;;;;;;;;4994580;28;20427;-67
2021/01/10 12:03:28;;;;;;;;;;;;;;;;;;4993572;28;19930;-68
2021/01/10 12:05:54;;;;;;;;;;;;;;;;;;4992379;28;19925;-67
2021/01/10 12:08:21;;;;;;;;;;;;;;;;;;4993179;28;20020;-69
2021/01/10 12:10:47;;;;;;;;;;;;;;;;;;4993557;28;19933;-69
2021/01/10 12:13:14;;;;;;;;;;;;;;;;;;4993089;28;19926;-68
2021/01/10 12:15:40;;;;;;;;;;;;;;;;;;5009228;23;19926;-67
2021/01/10 12:18:07;;;;;;;;;;;;;;;;;;4993493;28;20020;-68
2021/01/10 12:20:33;;;;;;;;;;;;;;;;;;4995305;28;19972;-69
2021/01/10 12:23:00;;;;;;;;;;;;;;;;;;4995000;28;19932;-68
2021/01/10 12:25:26;;;;;;;;;;;;;;;;;;4994328;28;19933;-67
2021/01/10 12:27:53;;;;;;;;;;;;;;;;;;4993275;28;19926;-68
2021/01/10 12:30:22;;;;;;;;;;;;;;;;;;4988942;28;19976;-70
2021/01/10 12:32:49;;;;;;;;;;;;;;;;;;4994414;28;19965;-68
2021/01/10 12:35:15;;;;;;;;;;;;;;;;;;4993465;28;20380;-68
2021/01/10 12:37:42;;;;;;;;;;;;;;;;;;4992832;28;19933;-67
2021/01/10 12:40:08;;;;;;;;;;;;;;;;;;4992474;28;19930;-68
2021/01/10 12:42:35;;;;;;;;;;;;;;;;;;4993292;28;20299;-68
2021/01/10 12:45:01;;;;;;;;;;;;;;;;;;4994186;28;19929;-67
2021/01/10 12:47:28;;;;;;;;;;;;;;;;;;4993526;28;19936;-68
2021/01/10 12:49:54;;;;;;;;;;;;;;;;;;4992709;28;20332;-68
2021/01/10 12:52:21;;;;;;;;;;;;;;;;;;4993336;28;19936;-68
2021/01/10 12:54:47;;;;;;;;;;;;;;;;;;4993447;28;20020;-69
2021/01/10 12:57:14;;;;;;;;;;;;;;;;;;4992226;28;19936;-67
2021/01/10 12:59:40;;;;;;;;;;;;;;;;;;4993959;28;19929;-69
2021/01/10 13:02:09;;;;;;;;;;;;;;;;;;4992296;28;19926;-69
2021/01/10 13:04:35;;;;;;;;;;;;;;;;;;4993594;28;19976;-68
2021/01/10 13:07:02;;;;;;;;;;;;;;;;;;4993406;28;19929;-66
2021/01/10 13:09:28;;;;;;;;;;;;;;;;;;4989659;28;20046;-66
2021/01/10 13:11:55;;;;;;;;;;;;;;;;;;4992519;28;19933;-66
2021/01/10 13:14:21;;;;;;;;;;;;;;;;;;4989172;28;19926;-68
2021/01/10 13:16:48;;;;;;;;;;;;;;;;;;4987496;28;19926;-67
2021/01/10 13:19:14;;;;;;;;;;;;;;;;;;4990609;28;19930;-68
2021/01/10 13:21:41;;;;;;;;;;;;;;;;;;4987599;28;19934;-68
2021/01/10 13:24:07;;;;;;;;;;;;;;;;;;4987386;28;19926;-68
2021/01/10 13:26:34;;;;;;;;;;;;;;;;;;4987728;28;19933;-68
2021/01/10 13:29:00;;;;;;;;;;;;;;;;;;4989113;28;20411;-68
2021/01/10 13:31:27;;;;;;;;;;;;;;;;;;4981937;28;19926;-68
2021/01/10 13:33:53;;;;;;;;;;;;;;;;;;4986679;28;19926;-67
2021/01/10 13:36:20;;;;;;;;;;;;;;;;;;4989833;28;20299;-68
2021/01/10 13:38:46;;;;;;;;;;;;;;;;;;4988758;28;19926;-67
2021/01/10 13:41:13;;;;;;;;;;;;;;;;;;4984293;28;20406;-67
2021/01/10 13:43:39;;;;;;;;;;;;;;;;;;4991003;28;19926;-67
2021/01/10 13:46:06;;;;;;;;;;;;;;;;;;4989349;28;19960;-68
2021/01/10 13:48:32;;;;;;;;;;;;;;;;;;4989563;28;20048;-68
2021/01/10 13:50:59;;;;;;;;;;;;;;;;;;4990584;28;19996;-67
2021/01/10 13:53:25;;;;;;;;;;;;;;;;;;4991302;28;20428;-68
2021/01/10 13:55:52;;;;;;;;;;;;;;;;;;4986633;28;19937;-68
2021/01/10 13:58:18;;;;;;;;;;;;;;;;;;4985145;28;19972;-68
2021/01/10 14:00:46;;;;;;;;;;;;;;;;;;4988376;28;19980;-68
2021/01/10 14:03:12;;;;;;;;;;;;;;;;;;4988922;28;19972;-68
2021/01/10 14:05:39;;;;;;;;;;;;;;;;;;4984402;28;20008;-68
2021/01/10 14:08:05;;;;;;;;;;;;;;;;;;4988531;28;20067;-67
2021/01/10 14:10:32;;;;;;;;;;;;;;;;;;4991235;28;19926;-69
2021/01/10 14:12:58;;;;;;;;;;;;;;;;;;4986622;28;19926;-68
2021/01/10 14:15:25;;;;;;;;;;;;;;;;;;4991635;28;19926;-69
2021/01/10 14:17:51;;;;;;;;;;;;;;;;;;4991972;28;20407;-69
2021/01/10 14:20:18;;;;;;;;;;;;;;;;;;4991864;28;19933;-69
2021/01/10 14:22:44;;;;;;;;;;;;;;;;;;4988392;28;19929;-69
2021/01/10 14:25:11;;;;;;;;;;;;;;;;;;4990104;28;19929;-69
2021/01/10 14:27:39;;;;;;;;;;;;;;;;;;4988652;28;19926;-69
2021/01/10 14:30:05;;;;;;;;;;;;;;;;;;4988928;28;19926;-68
2021/01/10 14:32:32;;;;;;;;;;;;;;;;;;4991001;28;20698;-69
2021/01/10 14:34:58;;;;;;;;;;;;;;;;;;4990228;28;19936;-69
2021/01/10 14:37:25;;;;;;;;;;;;;;;;;;4991970;28;20299;-69
2021/01/10 14:39:51;;;;;;;;;;;;;;;;;;4994975;28;19925;-69
2021/01/10 14:42:18;;;;;;;;;;;;;;;;;;4994888;28;19956;-69
2021/01/10 14:44:44;;;;;;;;;;;;;;;;;;4995953;28;19932;-69
2021/01/10 14:47:11;;;;;;;;;;;;;;;;;;4995780;28;20303;-68
2021/01/10 14:49:37;;;;;;;;;;;;;;;;;;4995882;28;19926;-69
2021/01/10 14:52:04;;;;;;;;;;;;;;;;;;4991515;28;19932;-70
2021/01/10 14:54:30;;;;;;;;;;;;;;;;;;4989733;28;19929;-68
2021/01/10 14:56:57;;;;;;;;;;;;;;;;;;5000563;28;19926;-68
2021/01/10 14:59:23;;;;;;;;;;;;;;;;;;5003986;28;19965;-67
2021/01/10 15:01:50;;;;;;;;;;;;;;;;;;5001994;28;19930;-68
2021/01/10 15:04:16;;;;;;;;;;;;;;;;;;5010127;28;19965;-67
2021/01/10 15:06:43;;;;;;;;;;;;;;;;;;5014458;28;19937;-66
2021/01/10 15:09:10;;;;;;;;;;;;;;;;;;5009212;28;20634;-68
2021/01/10 15:11:36;;;;;;;;;;;;;;;;;;5000969;28;19925;-68
2021/01/10 15:14:03;;;;;;;;;;;;;;;;;;5005358;28;20009;-68
2021/01/10 15:16:29;;;;;;;;;;;;;;;;;;5005225;28;19964;-69
2021/01/10 15:18:57;;;;;;;;;;;;;;;;;;5001123;28;19936;-68
2021/01/10 15:21:23;;;;;;;;;;;;;;;;;;4999827;28;20376;-67
2021/01/10 15:23:50;;;;;;;;;;;;;;;;;;5001247;28;19937;-67
2021/01/10 15:26:18;;;;;;;;;;;;;;;;;;4997949;28;20139;-67
2021/01/10 15:28:44;;;;;;;;;;;;;;;;;;4996011;28;20400;-68
2021/01/10 15:31:11;;;;;;;;;;;;;;;;;;4998537;28;19925;-68
2021/01/10 15:33:37;;;;;;;;;;;;;;;;;;4999158;28;19989;-67
2021/01/10 15:36:05;;;;;;;;;;;;;;;;;;5000748;28;20013;-67
2021/01/10 15:38:32;;;;;;;;;;;;;;;;;;4998350;28;19953;-67
2021/01/10 15:40:58;;;;;;;;;;;;;;;;;;4998872;28;20045;-67
2021/01/10 15:43:25;;;;;;;;;;;;;;;;;;4998979;28;20005;-67
2021/01/10 15:45:51;;;;;;;;;;;;;;;;;;4996291;28;19926;-67
2021/01/10 15:48:18;;;;;;;;;;;;;;;;;;4999312;28;19926;-68
2021/01/10 15:50:44;;;;;;;;;;;;;;;;;;5001662;28;20306;-68
2021/01/10 15:53:11;;;;;;;;;;;;;;;;;;4995773;28;19933;-67
2021/01/10 15:55:37;;;;;;;;;;;;;;;;;;4997873;28;19926;-67
2021/01/10 15:58:04;;;;;;;;;;;;;;;;;;4996692;28;19930;-66
2021/01/10 16:00:30;;;;;;;;;;;;;;;;;;4998060;28;19985;-68
2021/01/10 16:02:57;;;;;;;;;;;;;;;;;;4998024;28;20375;-68
2021/01/10 16:05:23;;;;;;;;;;;;;;;;;;4998670;28;19926;-68
2021/01/10 16:07:50;;;;;;;;;;;;;;;;;;4998451;28;19929;-68
2021/01/10 16:10:16;;;;;;;;;;;;;;;;;;4998069;28;19979;-68
2021/01/10 16:12:43;;;;;;;;;;;;;;;;;;4998877;28;19985;-67
2021/01/10 16:15:09;;;;;;;;;;;;;;;;;;4996485;28;19981;-68
2021/01/10 16:17:39;;;;;;;;;;;;;;;;;;4996906;28;20064;-68
2021/01/10 16:20:05;;;;;;;;;;;;;;;;;;5002493;28;20307;-67
2021/01/10 16:22:32;;;;;;;;;;;;;;;;;;5001429;28;20052;-67
2021/01/10 16:25:03;;;;;;;;;;;;;;;;;;4997482;28;19932;-67
2021/01/10 16:27:29;;;;;;;;;;;;;;;;;;4997893;28;19955;-67
2021/01/10 16:29:56;;;;;;;;;;;;;;;;;;5001384;28;19978;-66
2021/01/10 16:32:22;;;;;;;;;;;;;;;;;;4998798;28;20441;-67
2021/01/10 16:34:49;;;;;;;;;;;;;;;;;;4997346;28;19929;-67
2021/01/10 16:37:15;;;;;;;;;;;;;;;;;;4998933;28;19926;-68
2021/01/10 16:39:42;;;;;;;;;;;;;;;;;;4999091;28;19933;-67